sensor_id;sensor_type;location;lat;lon;timestamp;temperature;humidity
28654;DHT22;24320;56.980;24.336;2023-02-25T00:02:10;1.40;99.90
28654;DHT22;24320;56.980;24.336;2023-02-25T00:04:38;1.40;99.90
28654;DHT22;24320;56.980;24.336;2023-02-25T00:07:06;1.40;99.90
28654;DHT22;24320;56.980;24.336;2023-02-25T00:09:34;1.40;99.90
28654;DHT22;24320;56.980;24.336;2023-02-25T00:12:00;1.50;99.90
28654;DHT22;24320;56.980;24.336;2023-02-25T00:14:28;1.50;99.90
28654;DHT22;24320;56.980;24.336;2023-02-25T00:16:54;1.50;99.90
28654;DHT22;24320;56.980;24.336;2023-02-25T00:19:23;1.50;99.90
28654;DHT22;24320;56.980;24.336;2023-02-25T00:21:50;1.50;99.90
28654;DHT22;24320;56.980;24.336;2023-02-25T00:24:17;1.50;99.90
28654;DHT22;24320;56.980;24.336;2023-02-25T00:26:46;1.50;99.90
28654;DHT22;24320;56.980;24.336;2023-02-25T00:29:13;1.40;99.90
28654;DHT22;24320;56.980;24.336;2023-02-25T00:31:40;1.30;99.90
28654;DHT22;24320;56.980;24.336;2023-02-25T00:34:07;1.30;99.90
28654;DHT22;24320;56.980;24.336;2023-02-25T00:36:34;1.30;99.90
28654;DHT22;24320;56.980;24.336;2023-02-25T00:39:01;1.40;99.90
28654;DHT22;24320;56.980;24.336;2023-02-25T00:41:29;1.40;99.90
28654;DHT22;24320;56.980;24.336;2023-02-25T00:43:58;1.40;99.90
28654;DHT22;24320;56.980;24.336;2023-02-25T00:48:57;1.40;99.90
28654;DHT22;24320;56.980;24.336;2023-02-25T00:51:29;1.50;99.90
28654;DHT22;24320;56.980;24.336;2023-02-25T00:53:57;1.50;99.90
28654;DHT22;24320;56.980;24.336;2023-02-25T00:56:25;1.50;99.90
28654;DHT22;24320;56.980;24.336;2023-02-25T00:58:53;1.40;99.90
28654;DHT22;24320;56.980;24.336;2023-02-25T01:01:28;1.40;99.90
28654;DHT22;24320;56.980;24.336;2023-02-25T01:03:56;1.50;99.90
28654;DHT22;24320;56.980;24.336;2023-02-25T01:06:25;1.50;99.90
28654;DHT22;24320;56.980;24.336;2023-02-25T01:08:53;1.50;99.90
28654;DHT22;24320;56.980;24.336;2023-02-25T01:11:26;1.50;99.90
28654;DHT22;24320;56.980;24.336;2023-02-25T01:14:04;1.50;99.90
28654;DHT22;24320;56.980;24.336;2023-02-25T01:16:32;1.50;99.90
28654;DHT22;24320;56.980;24.336;2023-02-25T01:19:04;1.50;99.90
28654;DHT22;24320;56.980;24.336;2023-02-25T01:21:35;1.50;99.90
28654;DHT22;24320;56.980;24.336;2023-02-25T01:24:05;1.50;99.90
28654;DHT22;24320;56.980;24.336;2023-02-25T01:26:34;1.40;99.90
28654;DHT22;24320;56.980;24.336;2023-02-25T01:29:06;1.40;99.90
28654;DHT22;24320;56.980;24.336;2023-02-25T01:31:33;1.40;99.90
28654;DHT22;24320;56.980;24.336;2023-02-25T01:34:02;1.40;99.90
28654;DHT22;24320;56.980;24.336;2023-02-25T01:36:30;1.40;99.90
28654;DHT22;24320;56.980;24.336;2023-02-25T01:38:58;1.40;99.90
28654;DHT22;24320;56.980;24.336;2023-02-25T01:41:26;1.40;99.90
28654;DHT22;24320;56.980;24.336;2023-02-25T01:46:31;1.40;99.90
28654;DHT22;24320;56.980;24.336;2023-02-25T01:49:00;1.40;99.90
28654;DHT22;24320;56.980;24.336;2023-02-25T01:51:28;1.40;99.90
28654;DHT22;24320;56.980;24.336;2023-02-25T01:53:57;1.40;99.90
28654;DHT22;24320;56.980;24.336;2023-02-25T01:56:25;1.40;99.90
28654;DHT22;24320;56.980;24.336;2023-02-25T01:58:53;1.30;99.90
28654;DHT22;24320;56.980;24.336;2023-02-25T02:01:22;1.40;99.90
28654;DHT22;24320;56.980;24.336;2023-02-25T02:03:51;1.30;99.90
28654;DHT22;24320;56.980;24.336;2023-02-25T02:06:27;1.30;99.90
28654;DHT22;24320;56.980;24.336;2023-02-25T02:08:56;1.40;99.90
28654;DHT22;24320;56.980;24.336;2023-02-25T02:11:24;1.30;99.90
28654;DHT22;24320;56.980;24.336;2023-02-25T02:13:54;1.30;99.90
28654;DHT22;24320;56.980;24.336;2023-02-25T02:19:20;1.30;99.90
28654;DHT22;24320;56.980;24.336;2023-02-25T02:22:18;1.30;99.90
28654;DHT22;24320;56.980;24.336;2023-02-25T02:33:23;1.40;99.90
28654;DHT22;24320;56.980;24.336;2023-02-25T02:46:31;1.30;99.90
28654;DHT22;24320;56.980;24.336;2023-02-25T02:49:00;1.30;99.90
28654;DHT22;24320;56.980;24.336;2023-02-25T02:51:34;1.40;99.90
28654;DHT22;24320;56.980;24.336;2023-02-25T02:54:04;1.30;99.90
28654;DHT22;24320;56.980;24.336;2023-02-25T02:56:34;1.30;99.90
28654;DHT22;24320;56.980;24.336;2023-02-25T02:59:06;1.30;99.90
28654;DHT22;24320;56.980;24.336;2023-02-25T03:01:40;1.40;99.90
28654;DHT22;24320;56.980;24.336;2023-02-25T03:04:11;1.40;99.90
28654;DHT22;24320;56.980;24.336;2023-02-25T03:06:45;1.40;99.90
28654;DHT22;24320;56.980;24.336;2023-02-25T03:09:49;1.40;99.90
28654;DHT22;24320;56.980;24.336;2023-02-25T03:12:17;1.30;99.90
28654;DHT22;24320;56.980;24.336;2023-02-25T03:14:44;1.30;99.90
28654;DHT22;24320;56.980;24.336;2023-02-25T03:17:26;1.30;99.90
28654;DHT22;24320;56.980;24.336;2023-02-25T03:22:55;1.30;99.90
28654;DHT22;24320;56.980;24.336;2023-02-25T03:25:34;1.40;99.90
28654;DHT22;24320;56.980;24.336;2023-02-25T03:28:25;1.40;99.90
28654;DHT22;24320;56.980;24.336;2023-02-25T03:36:02;1.40;99.90
28654;DHT22;24320;56.980;24.336;2023-02-25T03:38:30;1.30;99.90
28654;DHT22;24320;56.980;24.336;2023-02-25T03:41:01;1.30;99.90
28654;DHT22;24320;56.980;24.336;2023-02-25T03:43:33;1.30;99.90
28654;DHT22;24320;56.980;24.336;2023-02-25T03:46:02;1.30;99.90
28654;DHT22;24320;56.980;24.336;2023-02-25T03:48:31;1.30;99.90
28654;DHT22;24320;56.980;24.336;2023-02-25T03:51:01;1.30;99.90
28654;DHT22;24320;56.980;24.336;2023-02-25T03:53:29;1.30;99.90
28654;DHT22;24320;56.980;24.336;2023-02-25T03:56:04;1.30;99.90
28654;DHT22;24320;56.980;24.336;2023-02-25T03:58:42;1.30;99.90
28654;DHT22;24320;56.980;24.336;2023-02-25T04:01:14;1.30;99.90
28654;DHT22;24320;56.980;24.336;2023-02-25T04:03:43;1.30;99.90
28654;DHT22;24320;56.980;24.336;2023-02-25T04:06:13;1.30;99.90
28654;DHT22;24320;56.980;24.336;2023-02-25T04:08:40;1.30;99.90
28654;DHT22;24320;56.980;24.336;2023-02-25T04:11:07;1.30;99.90
28654;DHT22;24320;56.980;24.336;2023-02-25T04:13:34;1.30;99.90
28654;DHT22;24320;56.980;24.336;2023-02-25T04:16:01;1.20;99.90
28654;DHT22;24320;56.980;24.336;2023-02-25T04:18:28;1.20;99.90
28654;DHT22;24320;56.980;24.336;2023-02-25T04:20:55;1.20;99.90
28654;DHT22;24320;56.980;24.336;2023-02-25T04:23:22;1.20;99.90
28654;DHT22;24320;56.980;24.336;2023-02-25T04:25:49;1.20;99.90
28654;DHT22;24320;56.980;24.336;2023-02-25T04:28:16;1.20;99.90
28654;DHT22;24320;56.980;24.336;2023-02-25T04:30:43;1.20;99.90
28654;DHT22;24320;56.980;24.336;2023-02-25T04:33:10;1.20;99.90
28654;DHT22;24320;56.980;24.336;2023-02-25T04:35:38;1.20;99.90
28654;DHT22;24320;56.980;24.336;2023-02-25T04:38:05;1.20;99.90
28654;DHT22;24320;56.980;24.336;2023-02-25T04:40:34;1.20;99.90
28654;DHT22;24320;56.980;24.336;2023-02-25T04:43:02;1.20;99.90
28654;DHT22;24320;56.980;24.336;2023-02-25T04:45:29;1.20;99.90
28654;DHT22;24320;56.980;24.336;2023-02-25T04:47:55;1.20;99.90
28654;DHT22;24320;56.980;24.336;2023-02-25T04:50:23;1.20;99.90
28654;DHT22;24320;56.980;24.336;2023-02-25T04:52:51;1.20;99.90
28654;DHT22;24320;56.980;24.336;2023-02-25T04:55:18;1.20;99.90
28654;DHT22;24320;56.980;24.336;2023-02-25T04:57:45;1.20;99.90
28654;DHT22;24320;56.980;24.336;2023-02-25T05:00:16;1.20;99.90
28654;DHT22;24320;56.980;24.336;2023-02-25T05:02:47;1.20;99.90
28654;DHT22;24320;56.980;24.336;2023-02-25T05:05:14;1.20;99.90
28654;DHT22;24320;56.980;24.336;2023-02-25T05:07:41;1.20;99.90
28654;DHT22;24320;56.980;24.336;2023-02-25T05:10:11;1.20;99.90
28654;DHT22;24320;56.980;24.336;2023-02-25T05:12:38;1.20;99.90
28654;DHT22;24320;56.980;24.336;2023-02-25T05:15:05;1.20;99.90
28654;DHT22;24320;56.980;24.336;2023-02-25T05:17:34;1.20;99.90
28654;DHT22;24320;56.980;24.336;2023-02-25T05:20:02;1.20;99.90
28654;DHT22;24320;56.980;24.336;2023-02-25T05:22:32;1.10;99.90
28654;DHT22;24320;56.980;24.336;2023-02-25T05:25:00;1.10;99.90
28654;DHT22;24320;56.980;24.336;2023-02-25T05:27:27;1.10;99.90
28654;DHT22;24320;56.980;24.336;2023-02-25T05:29:54;1.10;99.90
28654;DHT22;24320;56.980;24.336;2023-02-25T05:32:24;1.20;99.90
28654;DHT22;24320;56.980;24.336;2023-02-25T05:34:51;1.10;99.90
28654;DHT22;24320;56.980;24.336;2023-02-25T05:37:18;1.10;99.90
28654;DHT22;24320;56.980;24.336;2023-02-25T05:39:45;1.10;99.90
28654;DHT22;24320;56.980;24.336;2023-02-25T05:42:12;1.20;99.90
28654;DHT22;24320;56.980;24.336;2023-02-25T05:44:39;1.20;99.90
28654;DHT22;24320;56.980;24.336;2023-02-25T05:47:06;1.20;99.90
28654;DHT22;24320;56.980;24.336;2023-02-25T05:49:33;1.20;99.90
28654;DHT22;24320;56.980;24.336;2023-02-25T05:52:00;1.20;99.90
28654;DHT22;24320;56.980;24.336;2023-02-25T05:54:27;1.20;99.90
28654;DHT22;24320;56.980;24.336;2023-02-25T05:56:54;1.20;99.90
28654;DHT22;24320;56.980;24.336;2023-02-25T05:59:21;1.30;99.90
28654;DHT22;24320;56.980;24.336;2023-02-25T06:01:48;1.30;99.90
28654;DHT22;24320;56.980;24.336;2023-02-25T06:04:15;1.30;99.90
28654;DHT22;24320;56.980;24.336;2023-02-25T06:06:42;1.40;99.90
28654;DHT22;24320;56.980;24.336;2023-02-25T06:09:16;1.40;99.90
28654;DHT22;24320;56.980;24.336;2023-02-25T06:11:47;1.50;99.90
28654;DHT22;24320;56.980;24.336;2023-02-25T06:14:15;1.50;99.90
28654;DHT22;24320;56.980;24.336;2023-02-25T06:16:42;1.50;99.90
28654;DHT22;24320;56.980;24.336;2023-02-25T06:19:11;1.60;99.90
28654;DHT22;24320;56.980;24.336;2023-02-25T06:21:38;1.60;99.90
28654;DHT22;24320;56.980;24.336;2023-02-25T06:24:05;1.60;99.90
28654;DHT22;24320;56.980;24.336;2023-02-25T06:26:32;1.70;99.90
28654;DHT22;24320;56.980;24.336;2023-02-25T06:29:01;1.70;99.90
28654;DHT22;24320;56.980;24.336;2023-02-25T06:31:28;1.70;99.90
28654;DHT22;24320;56.980;24.336;2023-02-25T06:33:55;1.70;99.90
28654;DHT22;24320;56.980;24.336;2023-02-25T06:36:22;1.80;99.90
28654;DHT22;24320;56.980;24.336;2023-02-25T06:38:50;1.80;99.90
28654;DHT22;24320;56.980;24.336;2023-02-25T06:41:19;1.80;99.90
28654;DHT22;24320;56.980;24.336;2023-02-25T06:43:47;1.90;99.90
28654;DHT22;24320;56.980;24.336;2023-02-25T06:46:23;1.90;99.90
28654;DHT22;24320;56.980;24.336;2023-02-25T06:48:52;2.00;99.90
28654;DHT22;24320;56.980;24.336;2023-02-25T06:51:20;2.00;99.90
28654;DHT22;24320;56.980;24.336;2023-02-25T06:53:47;2.00;99.90
28654;DHT22;24320;56.980;24.336;2023-02-25T06:56:15;2.00;99.90
28654;DHT22;24320;56.980;24.336;2023-02-25T06:58:46;2.00;99.90
28654;DHT22;24320;56.980;24.336;2023-02-25T07:01:15;2.00;99.90
28654;DHT22;24320;56.980;24.336;2023-02-25T07:03:43;2.10;99.90
28654;DHT22;24320;56.980;24.336;2023-02-25T07:06:10;2.10;99.90
28654;DHT22;24320;56.980;24.336;2023-02-25T07:08:39;2.10;99.90
28654;DHT22;24320;56.980;24.336;2023-02-25T07:13:48;2.20;99.90
28654;DHT22;24320;56.980;24.336;2023-02-25T07:16:15;2.20;99.90
28654;DHT22;24320;56.980;24.336;2023-02-25T07:18:43;2.30;99.90
28654;DHT22;24320;56.980;24.336;2023-02-25T07:21:11;2.30;99.90
28654;DHT22;24320;56.980;24.336;2023-02-25T07:23:38;2.40;99.90
28654;DHT22;24320;56.980;24.336;2023-02-25T07:26:08;2.50;99.90
28654;DHT22;24320;56.980;24.336;2023-02-25T07:28:36;2.60;99.90
28654;DHT22;24320;56.980;24.336;2023-02-25T07:31:12;2.70;99.90
28654;DHT22;24320;56.980;24.336;2023-02-25T07:33:39;2.80;99.90
28654;DHT22;24320;56.980;24.336;2023-02-25T07:36:08;2.90;99.90
28654;DHT22;24320;56.980;24.336;2023-02-25T07:38:35;2.90;99.90
28654;DHT22;24320;56.980;24.336;2023-02-25T07:41:09;3.10;99.90
28654;DHT22;24320;56.980;24.336;2023-02-25T07:43:36;3.10;99.90
28654;DHT22;24320;56.980;24.336;2023-02-25T07:46:03;3.10;99.90
28654;DHT22;24320;56.980;24.336;2023-02-25T07:48:30;3.10;99.90
28654;DHT22;24320;56.980;24.336;2023-02-25T07:51:07;3.20;99.90
28654;DHT22;24320;56.980;24.336;2023-02-25T07:53:34;3.30;99.90
28654;DHT22;24320;56.980;24.336;2023-02-25T07:56:01;3.30;99.90
28654;DHT22;24320;56.980;24.336;2023-02-25T07:58:28;3.30;99.90
28654;DHT22;24320;56.980;24.336;2023-02-25T08:00:55;3.30;99.90
28654;DHT22;24320;56.980;24.336;2023-02-25T08:03:22;3.40;99.90
28654;DHT22;24320;56.980;24.336;2023-02-25T08:05:50;3.50;99.90
28654;DHT22;24320;56.980;24.336;2023-02-25T08:08:20;3.50;99.90
28654;DHT22;24320;56.980;24.336;2023-02-25T08:10:47;3.50;99.90
28654;DHT22;24320;56.980;24.336;2023-02-25T08:13:15;3.50;99.90
28654;DHT22;24320;56.980;24.336;2023-02-25T08:15:42;3.40;99.90
28654;DHT22;24320;56.980;24.336;2023-02-25T08:18:10;3.40;99.90
28654;DHT22;24320;56.980;24.336;2023-02-25T08:20:37;3.30;99.90
28654;DHT22;24320;56.980;24.336;2023-02-25T08:23:04;3.30;99.90
28654;DHT22;24320;56.980;24.336;2023-02-25T08:25:32;3.30;99.90
28654;DHT22;24320;56.980;24.336;2023-02-25T08:28:00;3.40;99.90
28654;DHT22;24320;56.980;24.336;2023-02-25T08:30:27;3.50;99.90
28654;DHT22;24320;56.980;24.336;2023-02-25T08:32:53;3.60;99.90
28654;DHT22;24320;56.980;24.336;2023-02-25T08:35:20;3.60;99.90
28654;DHT22;24320;56.980;24.336;2023-02-25T08:37:47;3.70;99.90
28654;DHT22;24320;56.980;24.336;2023-02-25T08:40:14;3.80;99.90
28654;DHT22;24320;56.980;24.336;2023-02-25T08:42:45;3.70;99.90
28654;DHT22;24320;56.980;24.336;2023-02-25T08:45:12;3.80;99.90
28654;DHT22;24320;56.980;24.336;2023-02-25T08:47:39;3.80;99.90
28654;DHT22;24320;56.980;24.336;2023-02-25T08:50:06;3.90;99.90
28654;DHT22;24320;56.980;24.336;2023-02-25T08:52:33;3.90;99.90
28654;DHT22;24320;56.980;24.336;2023-02-25T08:55:01;3.80;99.90
28654;DHT22;24320;56.980;24.336;2023-02-25T08:57:29;3.70;99.90
28654;DHT22;24320;56.980;24.336;2023-02-25T08:59:56;3.60;99.90
28654;DHT22;24320;56.980;24.336;2023-02-25T09:02:23;3.50;99.90
28654;DHT22;24320;56.980;24.336;2023-02-25T09:04:50;3.40;99.90
28654;DHT22;24320;56.980;24.336;2023-02-25T09:07:17;3.30;99.90
28654;DHT22;24320;56.980;24.336;2023-02-25T09:09:46;3.30;99.90
28654;DHT22;24320;56.980;24.336;2023-02-25T09:12:13;3.40;99.90
28654;DHT22;24320;56.980;24.336;2023-02-25T09:14:40;3.40;99.90
28654;DHT22;24320;56.980;24.336;2023-02-25T09:17:07;3.40;99.90
28654;DHT22;24320;56.980;24.336;2023-02-25T09:19:34;3.30;99.90
28654;DHT22;24320;56.980;24.336;2023-02-25T09:22:06;3.30;99.90
28654;DHT22;24320;56.980;24.336;2023-02-25T09:24:33;3.30;99.90
28654;DHT22;24320;56.980;24.336;2023-02-25T09:27:03;3.40;99.90
28654;DHT22;24320;56.980;24.336;2023-02-25T09:29:34;3.40;99.90
28654;DHT22;24320;56.980;24.336;2023-02-25T09:32:01;3.30;99.90
28654;DHT22;24320;56.980;24.336;2023-02-25T09:34:29;3.10;99.90
28654;DHT22;24320;56.980;24.336;2023-02-25T09:37:05;3.00;99.90
28654;DHT22;24320;56.980;24.336;2023-02-25T09:39:32;3.00;99.90
28654;DHT22;24320;56.980;24.336;2023-02-25T09:42:19;2.90;99.90
28654;DHT22;24320;56.980;24.336;2023-02-25T09:44:50;2.90;99.90
28654;DHT22;24320;56.980;24.336;2023-02-25T09:47:32;2.80;99.90
28654;DHT22;24320;56.980;24.336;2023-02-25T09:50:11;2.60;99.90
28654;DHT22;24320;56.980;24.336;2023-02-25T09:55:32;2.50;99.90
28654;DHT22;24320;56.980;24.336;2023-02-25T09:58:23;2.50;99.90
28654;DHT22;24320;56.980;24.336;2023-02-25T10:06:21;2.60;99.90
28654;DHT22;24320;56.980;24.336;2023-02-25T10:09:12;2.60;99.90
28654;DHT22;24320;56.980;24.336;2023-02-25T10:16:53;2.30;99.90
28654;DHT22;24320;56.980;24.336;2023-02-25T10:19:59;2.30;99.90
28654;DHT22;24320;56.980;24.336;2023-02-25T10:25:36;2.20;99.90
28654;DHT22;24320;56.980;24.336;2023-02-25T10:28:10;2.20;99.90
28654;DHT22;24320;56.980;24.336;2023-02-25T10:31:22;2.20;99.90
28654;DHT22;24320;56.980;24.336;2023-02-25T10:33:44;2.20;99.90
28654;DHT22;24320;56.980;24.336;2023-02-25T10:36:16;2.20;99.90
28654;DHT22;24320;56.980;24.336;2023-02-25T10:38:45;2.20;99.90
28654;DHT22;24320;56.980;24.336;2023-02-25T10:41:13;2.20;99.90
28654;DHT22;24320;56.980;24.336;2023-02-25T10:43:41;2.20;99.90
28654;DHT22;24320;56.980;24.336;2023-02-25T10:52:20;1.90;99.90
28654;DHT22;24320;56.980;24.336;2023-02-25T10:54:49;1.90;99.90
28654;DHT22;24320;56.980;24.336;2023-02-25T10:57:26;1.90;99.90
28654;DHT22;24320;56.980;24.336;2023-02-25T11:00:20;1.90;99.90
28654;DHT22;24320;56.980;24.336;2023-02-25T11:02:49;1.90;99.90
28654;DHT22;24320;56.980;24.336;2023-02-25T11:05:30;1.90;99.90
28654;DHT22;24320;56.980;24.336;2023-02-25T11:07:57;1.90;99.90
28654;DHT22;24320;56.980;24.336;2023-02-25T11:10:24;1.90;99.90
28654;DHT22;24320;56.980;24.336;2023-02-25T11:12:56;1.90;99.90
28654;DHT22;24320;56.980;24.336;2023-02-25T11:15:35;2.00;99.90
28654;DHT22;24320;56.980;24.336;2023-02-25T11:18:25;1.90;99.90
28654;DHT22;24320;56.980;24.336;2023-02-25T11:20:55;1.90;99.90
28654;DHT22;24320;56.980;24.336;2023-02-25T11:23:33;1.90;99.90
28654;DHT22;24320;56.980;24.336;2023-02-25T11:26:01;1.70;99.90
28654;DHT22;24320;56.980;24.336;2023-02-25T11:31:35;1.70;99.90
28654;DHT22;24320;56.980;24.336;2023-02-25T11:34:11;1.80;99.90
28654;DHT22;24320;56.980;24.336;2023-02-25T11:36:39;1.70;99.90
28654;DHT22;24320;56.980;24.336;2023-02-25T11:39:20;1.70;99.90
28654;DHT22;24320;56.980;24.336;2023-02-25T11:41:53;1.70;99.90
28654;DHT22;24320;56.980;24.336;2023-02-25T11:58:00;1.60;99.90
28654;DHT22;24320;56.980;24.336;2023-02-25T12:08:50;1.60;99.90
28654;DHT22;24320;56.980;24.336;2023-02-25T12:28:53;1.60;99.90
28654;DHT22;24320;56.980;24.336;2023-02-25T13:08:10;1.10;99.90
28654;DHT22;24320;56.980;24.336;2023-02-25T13:26:16;0.50;99.90
28654;DHT22;24320;56.980;24.336;2023-02-25T13:33:47;0.60;99.90
28654;DHT22;24320;56.980;24.336;2023-02-25T13:44:31;0.20;99.90
28654;DHT22;24320;56.980;24.336;2023-02-25T13:55:44;-0.10;99.90
28654;DHT22;24320;56.980;24.336;2023-02-25T14:04:13;-0.20;99.90
28654;DHT22;24320;56.980;24.336;2023-02-25T14:32:37;-0.50;99.90
28654;DHT22;24320;56.980;24.336;2023-02-25T14:46:00;-0.40;99.90
28654;DHT22;24320;56.980;24.336;2023-02-25T14:51:49;-0.50;99.90
28654;DHT22;24320;56.980;24.336;2023-02-25T14:57:31;-0.60;99.90
28654;DHT22;24320;56.980;24.336;2023-02-25T15:09:28;-0.70;99.90
28654;DHT22;24320;56.980;24.336;2023-02-25T15:15:10;-0.70;99.90
28654;DHT22;24320;56.980;24.336;2023-02-25T15:20:51;-0.80;99.90
28654;DHT22;24320;56.980;24.336;2023-02-25T15:23:19;-0.80;99.90
28654;DHT22;24320;56.980;24.336;2023-02-25T15:28:39;-0.80;99.90
28654;DHT22;24320;56.980;24.336;2023-02-25T15:36:48;-0.80;99.90
28654;DHT22;24320;56.980;24.336;2023-02-25T15:42:03;-0.90;99.90
28654;DHT22;24320;56.980;24.336;2023-02-25T15:44:33;-0.90;99.90
28654;DHT22;24320;56.980;24.336;2023-02-25T15:47:44;-0.90;99.90
28654;DHT22;24320;56.980;24.336;2023-02-25T15:49:52;-0.90;99.90
28654;DHT22;24320;56.980;24.336;2023-02-25T15:52:54;-1.00;99.90
28654;DHT22;24320;56.980;24.336;2023-02-25T15:55:41;-1.10;99.90
28654;DHT22;24320;56.980;24.336;2023-02-25T16:06:28;-1.20;99.90
28654;DHT22;24320;56.980;24.336;2023-02-25T16:09:06;-1.20;99.90
28654;DHT22;24320;56.980;24.336;2023-02-25T16:11:52;-1.20;99.90
28654;DHT22;24320;56.980;24.336;2023-02-25T16:14:26;-1.20;99.90
28654;DHT22;24320;56.980;24.336;2023-02-25T16:19:31;-1.30;99.90
28654;DHT22;24320;56.980;24.336;2023-02-25T16:22:15;-1.30;99.90
28654;DHT22;24320;56.980;24.336;2023-02-25T16:24:47;-1.30;99.90
28654;DHT22;24320;56.980;24.336;2023-02-25T16:27:50;-1.40;99.90
28654;DHT22;24320;56.980;24.336;2023-02-25T16:30:28;-1.30;99.90
28654;DHT22;24320;56.980;24.336;2023-02-25T16:33:16;-1.30;99.90
28654;DHT22;24320;56.980;24.336;2023-02-25T16:38:57;-1.40;99.90
28654;DHT22;24320;56.980;24.336;2023-02-25T16:41:27;-1.40;99.90
28654;DHT22;24320;56.980;24.336;2023-02-25T16:44:04;-1.40;99.90
28654;DHT22;24320;56.980;24.336;2023-02-25T16:46:33;-1.40;99.90
28654;DHT22;24320;56.980;24.336;2023-02-25T16:49:07;-1.40;99.90
28654;DHT22;24320;56.980;24.336;2023-02-25T16:51:42;-1.30;99.90
28654;DHT22;24320;56.980;24.336;2023-02-25T16:54:36;-1.30;99.90
28654;DHT22;24320;56.980;24.336;2023-02-25T16:57:06;-1.30;99.90
28654;DHT22;24320;56.980;24.336;2023-02-25T16:59:37;-1.30;99.90
28654;DHT22;24320;56.980;24.336;2023-02-25T17:04:46;-1.30;99.90
28654;DHT22;24320;56.980;24.336;2023-02-25T17:07:25;-1.40;99.90
28654;DHT22;24320;56.980;24.336;2023-02-25T17:09:58;-1.40;99.90
28654;DHT22;24320;56.980;24.336;2023-02-25T17:12:38;-1.30;99.90
28654;DHT22;24320;56.980;24.336;2023-02-25T17:15:16;-1.40;99.90
28654;DHT22;24320;56.980;24.336;2023-02-25T17:17:45;-1.30;99.90
28654;DHT22;24320;56.980;24.336;2023-02-25T17:20:18;-1.30;99.90
28654;DHT22;24320;56.980;24.336;2023-02-25T17:22:50;-1.30;99.90
28654;DHT22;24320;56.980;24.336;2023-02-25T17:25:21;-1.30;99.90
28654;DHT22;24320;56.980;24.336;2023-02-25T17:27:53;-1.30;99.90
28654;DHT22;24320;56.980;24.336;2023-02-25T17:33:03;-1.30;99.90
28654;DHT22;24320;56.980;24.336;2023-02-25T17:35:30;-1.30;99.90
28654;DHT22;24320;56.980;24.336;2023-02-25T17:37:58;-1.30;99.90
28654;DHT22;24320;56.980;24.336;2023-02-25T17:40:27;-1.30;99.90
28654;DHT22;24320;56.980;24.336;2023-02-25T17:43:15;-1.30;99.90
28654;DHT22;24320;56.980;24.336;2023-02-25T17:45:55;-1.30;99.90
28654;DHT22;24320;56.980;24.336;2023-02-25T17:48:26;-1.30;99.90
28654;DHT22;24320;56.980;24.336;2023-02-25T17:50:58;-1.30;99.90
28654;DHT22;24320;56.980;24.336;2023-02-25T17:53:44;-1.30;99.90
28654;DHT22;24320;56.980;24.336;2023-02-25T17:56:13;-1.30;99.90
28654;DHT22;24320;56.980;24.336;2023-02-25T17:58:43;-1.30;99.90
28654;DHT22;24320;56.980;24.336;2023-02-25T18:01:27;-1.30;99.90
28654;DHT22;24320;56.980;24.336;2023-02-25T18:03:57;-1.30;99.90
28654;DHT22;24320;56.980;24.336;2023-02-25T18:09:28;-1.30;99.90
28654;DHT22;24320;56.980;24.336;2023-02-25T18:11:58;-1.30;99.90
28654;DHT22;24320;56.980;24.336;2023-02-25T18:14:37;-1.30;99.90
28654;DHT22;24320;56.980;24.336;2023-02-25T18:17:17;-1.30;99.90
28654;DHT22;24320;56.980;24.336;2023-02-25T18:19:55;-1.30;99.90
28654;DHT22;24320;56.980;24.336;2023-02-25T18:22:36;-1.30;99.90
28654;DHT22;24320;56.980;24.336;2023-02-25T18:27:54;-1.30;99.90
28654;DHT22;24320;56.980;24.336;2023-02-25T18:30:24;-1.30;99.90
28654;DHT22;24320;56.980;24.336;2023-02-25T18:32:52;-1.30;99.90
28654;DHT22;24320;56.980;24.336;2023-02-25T18:35:29;-1.30;99.90
28654;DHT22;24320;56.980;24.336;2023-02-25T18:37:58;-1.30;99.90
28654;DHT22;24320;56.980;24.336;2023-02-25T18:40:29;-1.30;99.90
28654;DHT22;24320;56.980;24.336;2023-02-25T18:42:57;-1.30;99.90
28654;DHT22;24320;56.980;24.336;2023-02-25T18:45:26;-1.30;99.90
28654;DHT22;24320;56.980;24.336;2023-02-25T18:47:54;-1.40;99.90
28654;DHT22;24320;56.980;24.336;2023-02-25T18:50:23;-1.40;99.90
28654;DHT22;24320;56.980;24.336;2023-02-25T18:52:50;-1.40;99.90
28654;DHT22;24320;56.980;24.336;2023-02-25T18:55:22;-1.30;99.90
28654;DHT22;24320;56.980;24.336;2023-02-25T18:57:50;-1.40;99.90
28654;DHT22;24320;56.980;24.336;2023-02-25T19:00:20;-1.40;99.90
28654;DHT22;24320;56.980;24.336;2023-02-25T19:02:50;-1.40;99.90
28654;DHT22;24320;56.980;24.336;2023-02-25T19:05:20;-1.40;99.90
28654;DHT22;24320;56.980;24.336;2023-02-25T19:07:49;-1.40;99.90
28654;DHT22;24320;56.980;24.336;2023-02-25T19:10:22;-1.40;99.90
28654;DHT22;24320;56.980;24.336;2023-02-25T19:12:50;-1.40;99.90
28654;DHT22;24320;56.980;24.336;2023-02-25T19:15:19;-1.50;99.90
28654;DHT22;24320;56.980;24.336;2023-02-25T19:17:48;-1.50;99.90
28654;DHT22;24320;56.980;24.336;2023-02-25T19:20:16;-1.50;99.90
28654;DHT22;24320;56.980;24.336;2023-02-25T19:22:46;-1.50;99.90
28654;DHT22;24320;56.980;24.336;2023-02-25T19:25:26;-1.50;99.90
28654;DHT22;24320;56.980;24.336;2023-02-25T19:27:54;-1.50;99.90
28654;DHT22;24320;56.980;24.336;2023-02-25T19:30:28;-1.50;99.90
28654;DHT22;24320;56.980;24.336;2023-02-25T19:32:57;-1.50;99.90
28654;DHT22;24320;56.980;24.336;2023-02-25T19:35:32;-1.50;99.90
28654;DHT22;24320;56.980;24.336;2023-02-25T19:37:59;-1.50;99.90
28654;DHT22;24320;56.980;24.336;2023-02-25T19:40:26;-1.50;99.90
28654;DHT22;24320;56.980;24.336;2023-02-25T19:42:55;-1.50;99.90
28654;DHT22;24320;56.980;24.336;2023-02-25T19:45:24;-1.50;99.90
28654;DHT22;24320;56.980;24.336;2023-02-25T19:47:52;-1.50;99.90
28654;DHT22;24320;56.980;24.336;2023-02-25T19:50:21;-1.60;99.90
28654;DHT22;24320;56.980;24.336;2023-02-25T19:52:53;-1.60;99.90
28654;DHT22;24320;56.980;24.336;2023-02-25T19:55:20;-1.60;99.90
28654;DHT22;24320;56.980;24.336;2023-02-25T19:57:48;-1.60;99.90
28654;DHT22;24320;56.980;24.336;2023-02-25T20:00:21;-1.60;99.90
28654;DHT22;24320;56.980;24.336;2023-02-25T20:02:48;-1.60;99.90
28654;DHT22;24320;56.980;24.336;2023-02-25T20:05:17;-1.70;99.90
28654;DHT22;24320;56.980;24.336;2023-02-25T20:07:44;-1.70;99.90
28654;DHT22;24320;56.980;24.336;2023-02-25T20:10:12;-1.70;99.90
28654;DHT22;24320;56.980;24.336;2023-02-25T20:12:40;-1.70;99.90
28654;DHT22;24320;56.980;24.336;2023-02-25T20:15:09;-1.70;99.90
28654;DHT22;24320;56.980;24.336;2023-02-25T20:17:37;-1.70;99.90
28654;DHT22;24320;56.980;24.336;2023-02-25T20:20:05;-1.70;99.90
28654;DHT22;24320;56.980;24.336;2023-02-25T20:22:34;-1.70;99.90
28654;DHT22;24320;56.980;24.336;2023-02-25T20:25:02;-1.70;99.90
28654;DHT22;24320;56.980;24.336;2023-02-25T20:27:29;-1.70;99.90
28654;DHT22;24320;56.980;24.336;2023-02-25T20:29:55;-1.80;99.90